• Join FlightAware (Why Join?)
  • Login
  • US Flag 
03:14AM EDT


 

Airport Tracker/Info


-or-


 

Live Flight TrackerFlight Track Log ✈ FLG4262 ✈ 26-Sep-2013 ✈ KBGM - KDTW

Flight Track Log - Related Links

Times and Time Zones

All times are in EDT time to prevent confusion due to time zone crossing. See the FLG4262 flight status page for this flight to view local times or setup timezone preferences in your user account.

Time Position Orientation Groundspeed Altitude Reporting Facility
EDT Latitude Longitude Course Direction KTS MPH feet Rate Location/Type
05:28PM 42.2797 -76.1644 289° West 237 273 7,200  Level Cleveland Center
05:29PM 42.2245 -76.5083 291° West  Level Estimated
05:29PM 42.3069 -76.2636 290° West 271 312 9,500  Level Cleveland Center
05:30PM 42.2281 -76.6405 287° West  Level Estimated
05:30PM 42.3372 -76.3717 291° West 303 349 10,900  Level Cleveland Center
05:31PM 42.2316 -76.7727 294° West  Level Estimated
05:31PM 42.3678 -76.4861 290° West 338 389 12,000  Level Cleveland Center
05:32PM 42.4108 -76.6411 291° West 366 421 13,800 1,620 Climbing Cleveland Center
05:33PM 42.4472 -76.7731 291° West 372 428 15,400 1,440 Climbing Cleveland Center
05:34PM 42.4811 -76.9033 289° West 370 426 16,900 1,200 Climbing Cleveland Center
05:35PM 42.5167 -77.0372 290° West 376 433 18,000 960 Climbing Cleveland Center
05:36PM 42.5519 -77.1731 289° West 381 438 19,000 1,020 Climbing Cleveland Center
05:37PM 42.5958 -77.3403 290° West 392 451 20,200 960 Climbing Cleveland Center
05:38PM 42.6283 -77.4633 290° West 393 452 21,100 660 Climbing Cleveland Center
05:39PM 42.6650 -77.6064 289° West 399 459 21,600 540 Climbing Cleveland Center
05:40PM 42.7128 -77.7875 290° West 415 478 22,300 540 Climbing Cleveland Center
05:41PM 42.7508 -77.9381 289° West 422 486 22,800 480 Climbing Cleveland Center
05:42PM 42.7892 -78.0897 289° West 425 489 23,300 480 Climbing Cleveland Center
05:43PM 42.8286 -78.2428 289° West 429 494 23,800 300 Climbing Cleveland Center
05:44PM 42.8325 -78.4000 272° West 416 479 24,000 60 Climbing Cleveland Center
05:46PM 42.8333 -78.5558 270° West 412 474 24,000  Level Cleveland Center
05:47PM 42.8333 -78.7439 270° West 415 478 24,000  Level Cleveland Center
05:48PM 42.8283 -78.9000 268° West 414 476 24,000  Level Cleveland Center
05:49PM 42.8153 -79.0583 264° West 420 483 24,000  Level Cleveland Center
05:50PM 42.8022 -79.2161 264° West 421 484 24,000  Level Cleveland Center
05:51PM 42.7883 -79.3783 263° West 431 496 24,000  Level Cleveland Center
05:52PM 42.7731 -79.5758 264° West 440 506 24,000  Level Cleveland Center
05:53PM 42.7606 -79.7375 264° West 432 497 24,000  Level Cleveland Center
05:54PM 42.7469 -79.8967 263° West 427 491 24,000  Level Cleveland Center
05:55PM 42.7325 -80.0733 264° West 433 498 24,000  Level Cleveland Center
05:56PM 42.7181 -80.2358 263° West 431 496 24,000  Level Cleveland Center
05:57PM 42.7047 -80.4042 264° West 441 507 24,000  Level Cleveland Center
05:58PM 42.6906 -80.5703 263° West 441 507 24,000  Level Cleveland Center
05:59PM 42.6767 -80.7414 264° West 449 517 24,000  Level Cleveland Center
06:00PM 42.6628 -80.9086 264° West 447 514 24,000  Level Cleveland Center
06:01PM 42.6478 -81.0753 263° West 444 511 24,000  Level Cleveland Center
06:02PM 42.6303 -81.2692 263° West 442 509 24,000 -840 Level Cleveland Center
06:03PM 42.6150 -81.4336 263° West 437 503 22,300 -1,620 Descending Cleveland Center
06:04PM 42.6022 -81.5819 263° West 425 489 20,700 -1,140 Descending Cleveland Center
06:05PM 42.5864 -81.7458 263° West 414 476 20,000 -780 Descending Cleveland Center
06:06PM 42.5719 -81.8903 262° West 414 476 19,100 -1,500 Descending Cleveland Center
06:07PM 42.5542 -82.0708 262° West 404 465 17,000 -1,980 Descending Cleveland Center
06:08PM 42.5403 -82.2175 263° West 396 456 15,000 -1,920 Descending Cleveland Center
06:09PM 42.5267 -82.3589 263° West 386 444 13,100 -2,100 Descending Cleveland Center
06:09PM 42.5256 -82.3847 267° West 380 437 12,800 -1,080 Descending Cleveland Center
06:10PM 42.5119 -82.5189 262° West 336 387 12,000 -660 Descending Cleveland Center
06:11PM 42.4819 -82.6167 247° West 314 361 11,600 -300 Descending Cleveland Center
06:11PM 42.4844 -82.6058 73° East 318 366 11,700 -1,500 Climbing Cleveland Center
06:12PM 42.4450 -82.7250 246° West 309 356 10,100 -1,800 Descending Cleveland Center
06:12PM 42.4397 -82.7333 229° Southwest 314 361 9,900 -1,020 Descending Cleveland Center
06:13PM 42.4081 -82.8275 246° West 288 331 9,100 -900 Descending Cleveland Center
06:13PM 42.4050 -82.8311 221° Southwest 296 341 9,000 -1,140 Descending Cleveland Center
06:14PM 42.4322 -82.9269 291° West 279 321 8,000 -1,020 Descending Cleveland Center
06:15PM 42.4317 -82.9292 251° West 286 329 8,000 60 Level Cleveland Center
06:15PM 42.4603 -83.0269 292° West 284 327 8,100  Climbing Cleveland Center
06:16PM 42.4597 -83.0269 180° South 280 322 8,000 -120 Descending Cleveland Center
06:16PM 42.4956 -83.1167 298° West 240 276 8,000  Level Cleveland Center
06:17PM 42.4944 -83.1136 116° Southeast 268 308 8,000 -900 Level Cleveland Center
06:17PM 42.4567 -83.1875 235° Southwest 233 268 7,100 -1,020 Descending Cleveland Center
06:18PM 42.4581 -83.1828 68° East 244 281 7,000 -1,380 Descending Cleveland Center
06:18PM 42.3994 -83.2247 208° Southwest 216 249 5,700 -1,560 Descending Cleveland Center
06:19PM 42.3919 -83.2281 198° South 225 259 5,400 -1,680 Descending Cleveland Center
06:19PM 42.3483 -83.2631 211° Southwest 190 219 4,000 -1,560 Descending Cleveland Center
06:20PM 42.3431 -83.2661 203° Southwest 211 243 3,800 -1,620 Descending Cleveland Center
06:21PM 42.3081 -83.2939 210° Southwest 153 176 2,400 -1,500 Descending Cleveland Center
06:21PM 42.3031 -83.2953 192° South 173 199 2,300 -720 Descending Cleveland Center
06:22PM 42.2672 -83.3219 209° Southwest 151 174 1,500 -780 Descending Cleveland Center
06:23PM 42.2347 -83.3486 211° Southwest 148 170 900 -540 Descending Cleveland Center
06:23PM 42.2272 -83.3514 195° South 148 170 1,000 420 Climbing Cleveland Center